createdAt,value
2018-04-11T00:01:02.988Z,11.74
2018-04-11T00:03:31.172Z,11.67
2018-04-11T00:05:59.320Z,11.65
2018-04-11T00:08:29.320Z,11.64
2018-04-11T00:10:57.493Z,11.63
2018-04-11T00:13:25.676Z,11.59
2018-04-11T00:16:07.091Z,11.53
2018-04-11T00:18:35.252Z,11.48
2018-04-11T00:21:03.431Z,11.45
2018-04-11T00:23:31.603Z,11.41
2018-04-11T00:25:59.751Z,11.42
2018-04-11T00:28:27.953Z,11.40
2018-04-11T00:30:56.118Z,11.38
2018-04-11T00:33:24.269Z,11.35
2018-04-11T00:35:52.430Z,11.30
2018-04-11T00:38:20.604Z,11.25
2018-04-11T00:40:49.808Z,11.22
2018-04-11T00:43:17.965Z,11.19
2018-04-11T00:45:46.133Z,11.15
2018-04-11T00:48:15.935Z,11.13
2018-04-11T00:50:44.092Z,11.12
2018-04-11T00:53:25.543Z,11.11
2018-04-11T00:55:53.706Z,11.11
2018-04-11T00:58:21.862Z,11.07
2018-04-11T01:00:50.023Z,11.05
2018-04-11T01:03:18.189Z,10.99
2018-04-11T01:05:46.336Z,11.00
2018-04-11T01:08:14.518Z,11.00
2018-04-11T01:10:42.663Z,11.01
2018-04-11T01:13:10.829Z,11.00
2018-04-11T01:15:38.995Z,10.96
2018-04-11T01:18:07.676Z,10.94
2018-04-11T01:20:35.886Z,10.93
2018-04-11T01:23:04.039Z,10.89
2018-04-11T01:25:32.209Z,10.89
2018-04-11T01:28:00.390Z,10.88
2018-04-11T01:30:28.555Z,10.87
2018-04-11T01:32:56.692Z,10.86
2018-04-11T01:35:24.864Z,10.84
2018-04-11T01:37:53.018Z,10.83
2018-04-11T01:40:21.261Z,10.80
2018-04-11T01:42:49.414Z,10.77
2018-04-11T01:47:52.371Z,10.67
2018-04-11T01:50:24.358Z,10.65
2018-04-11T01:52:58.859Z,10.63
2018-04-11T01:55:27.053Z,10.60
2018-04-11T01:57:55.192Z,10.60
2018-04-11T02:00:23.337Z,10.57
2018-04-11T02:02:51.494Z,10.54
2018-04-11T02:05:19.654Z,10.49
2018-04-11T02:07:47.878Z,10.48
2018-04-11T02:10:16.170Z,10.48
2018-04-11T02:12:44.393Z,10.46
2018-04-11T02:15:12.635Z,10.43
2018-04-11T02:17:40.793Z,10.43
2018-04-11T02:20:08.959Z,10.45
2018-04-11T02:22:37.098Z,10.43
2018-04-11T02:25:05.292Z,10.40
2018-04-11T02:27:33.443Z,10.40
2018-04-11T02:30:07.941Z,10.40
2018-04-11T02:32:36.999Z,10.38
2018-04-11T02:35:05.163Z,10.37
2018-04-11T02:37:33.324Z,10.36
2018-04-11T02:40:01.593Z,10.34
2018-04-11T02:42:29.797Z,10.34
2018-04-11T02:44:57.965Z,10.36
2018-04-11T02:47:26.128Z,10.36
2018-04-11T02:49:54.291Z,10.39
2018-04-11T02:52:23.726Z,10.41
2018-04-11T02:54:51.906Z,10.43
2018-04-11T02:57:20.128Z,10.46
2018-04-11T02:59:48.294Z,10.47
2018-04-11T03:02:16.454Z,10.48
2018-04-11T03:04:44.656Z,10.48
2018-04-11T03:07:12.835Z,10.50
2018-04-11T03:09:41.012Z,10.49
2018-04-11T03:12:09.263Z,10.51
2018-04-11T03:14:37.422Z,10.51
2018-04-11T03:17:05.870Z,10.51
2018-04-11T03:19:34.024Z,10.51
2018-04-11T03:22:02.219Z,10.49
2018-04-11T03:27:09.547Z,10.43
2018-04-11T03:29:37.800Z,10.44
2018-04-11T03:32:07.030Z,10.45
2018-04-11T03:34:36.703Z,10.46
2018-04-11T03:37:04.882Z,10.47
2018-04-11T03:39:33.050Z,10.47
2018-04-11T03:42:02.008Z,10.49
2018-04-11T03:44:30.147Z,10.51
2018-04-11T03:46:58.318Z,10.49
2018-04-11T03:49:26.521Z,10.47
2018-04-11T03:51:54.691Z,10.48
2018-04-11T03:54:22.859Z,10.49
2018-04-11T03:56:51.030Z,10.52
2018-04-11T03:59:19.225Z,10.56
2018-04-11T04:01:47.492Z,10.55
2018-04-11T04:04:15.648Z,10.53
2018-04-11T04:06:43.843Z,10.50
2018-04-11T04:09:18.209Z,10.49
2018-04-11T04:11:46.405Z,10.53
2018-04-11T04:14:26.144Z,10.53
2018-04-11T04:17:06.167Z,10.53
2018-04-11T04:22:43.623Z,10.31
2018-04-11T04:25:12.094Z,10.22
2018-04-11T04:27:43.176Z,10.15
2018-04-11T04:30:14.051Z,10.10
2018-04-11T04:32:44.141Z,10.13
2018-04-11T04:35:14.989Z,10.13
2018-04-11T04:37:44.899Z,10.16
2018-04-11T04:40:13.993Z,10.20
2018-04-11T04:42:42.285Z,10.24
2018-04-11T04:45:10.753Z,10.26
2018-04-11T04:47:41.733Z,10.21
2018-04-11T04:50:12.752Z,10.21
2018-04-11T04:52:43.693Z,10.21
2018-04-11T04:55:13.819Z,10.22
2018-04-11T04:57:45.353Z,10.12
2018-04-11T05:00:13.705Z,10.03
2018-04-11T05:02:43.780Z,10.00
2018-04-11T05:05:12.950Z,10.01
2018-04-11T05:07:42.073Z,10.01
2018-04-11T05:10:11.147Z,10.05
2018-04-11T05:12:42.196Z,10.07
2018-04-11T05:15:10.545Z,10.10
2018-04-11T05:17:40.638Z,10.13
2018-04-11T05:20:09.207Z,10.18
2018-04-11T05:22:37.557Z,10.23
2018-04-11T05:25:08.527Z,10.23
2018-04-11T05:27:38.608Z,10.21
2018-04-11T05:30:07.118Z,10.16
2018-04-11T05:32:36.116Z,10.14
2018-04-11T05:35:06.139Z,10.14
2018-04-11T05:37:39.059Z,10.14
2018-04-11T05:40:09.203Z,10.14
2018-04-11T05:42:39.237Z,10.15
2018-04-11T05:45:12.626Z,10.17
2018-04-11T05:47:42.749Z,10.23
2018-04-11T05:50:13.217Z,10.29
2018-04-11T05:52:42.244Z,10.33
2018-04-11T05:55:14.804Z,10.37
2018-04-11T05:57:43.188Z,10.44
2018-04-11T06:00:13.335Z,10.55
2018-04-11T06:05:36.755Z,10.69
2018-04-11T06:08:06.812Z,10.75
2018-04-11T06:10:35.131Z,10.81
2018-04-11T06:13:05.194Z,10.89
2018-04-11T06:15:36.158Z,10.96
2018-04-11T06:18:06.074Z,10.95
2018-04-11T06:20:35.140Z,10.99
2018-04-11T06:23:05.279Z,11.02
2018-04-11T06:25:36.203Z,11.03
2018-04-11T06:28:05.244Z,11.10
2018-04-11T06:30:36.072Z,11.13
2018-04-11T06:33:05.130Z,11.19
2018-04-11T06:35:33.617Z,11.24
2018-04-11T06:38:02.814Z,11.28
2018-04-11T06:40:31.334Z,11.30
2018-04-11T06:43:01.576Z,11.34
2018-04-11T06:45:30.615Z,11.39
2018-04-11T06:48:00.576Z,11.42
2018-04-11T06:50:30.520Z,11.44
2018-04-11T06:53:04.731Z,11.50
2018-04-11T06:55:33.300Z,11.59
2018-04-11T06:58:01.633Z,11.68
2018-04-11T07:00:30.022Z,11.75
2018-04-11T07:02:58.385Z,11.81
2018-04-11T07:05:31.771Z,11.88
2018-04-11T07:08:04.722Z,11.95
2018-04-11T07:10:33.287Z,11.99
2018-04-11T07:13:03.483Z,12.03
2018-04-11T07:15:32.605Z,12.09
2018-04-11T07:18:02.548Z,12.13
2018-04-11T07:20:32.750Z,12.21
2018-04-11T07:23:03.852Z,12.28
2018-04-11T07:25:32.115Z,12.38
2018-04-11T07:28:00.383Z,12.47
2018-04-11T07:30:31.369Z,12.53
2018-04-11T07:32:59.688Z,12.62
2018-04-11T07:35:28.170Z,12.75
2018-04-11T07:37:56.729Z,12.86
2018-04-11T07:40:26.814Z,12.95
2018-04-11T07:42:55.265Z,13.01
2018-04-11T07:45:25.342Z,13.02
2018-04-11T07:47:56.330Z,13.07
2018-04-11T07:50:25.436Z,13.17
2018-04-11T07:52:53.741Z,13.22
2018-04-11T07:55:29.402Z,13.26
2018-04-11T07:57:59.672Z,13.36
2018-04-11T08:00:31.046Z,13.44
2018-04-11T08:03:01.964Z,13.51
2018-04-11T08:05:30.357Z,13.49
2018-04-11T08:07:58.658Z,13.55
2018-04-11T08:10:28.655Z,13.69
2018-04-11T08:12:57.245Z,13.81
2018-04-11T08:15:26.247Z,13.90
2018-04-11T08:17:54.930Z,13.87
2018-04-11T08:20:26.977Z,13.88
2018-04-11T08:22:55.279Z,13.97
2018-04-11T08:25:45.774Z,14.08
2018-04-11T08:28:15.961Z,14.16
2018-04-11T08:30:46.051Z,14.20
2018-04-11T08:33:16.139Z,14.27
2018-04-11T08:35:50.229Z,14.38
2018-04-11T08:38:20.323Z,14.46
2018-04-11T08:40:50.497Z,14.44
2018-04-11T08:43:19.582Z,14.47
2018-04-11T08:45:48.701Z,14.49
2018-04-11T08:48:20.961Z,14.58
2018-04-11T08:50:51.047Z,14.70
2018-04-11T08:53:20.192Z,14.75
2018-04-11T08:55:48.789Z,14.79
2018-04-11T08:58:30.317Z,14.87
2018-04-11T09:01:00.384Z,14.95
2018-04-11T09:03:30.582Z,14.91
2018-04-11T09:06:00.519Z,14.98
2018-04-11T09:08:32.164Z,15.06
2018-04-11T09:11:02.225Z,15.17
2018-04-11T09:13:33.037Z,15.32
2018-04-11T09:16:01.312Z,15.40
2018-04-11T09:18:30.319Z,15.48
2018-04-11T09:20:59.433Z,15.54
2018-04-11T09:23:29.421Z,15.65
2018-04-11T09:25:59.658Z,15.70
2018-04-11T09:28:30.652Z,15.80
2018-04-11T09:31:00.875Z,15.91
2018-04-11T09:33:29.245Z,15.98
2018-04-11T09:35:59.265Z,15.89
2018-04-11T09:38:44.599Z,15.93
2018-04-11T09:41:27.333Z,15.99
2018-04-11T09:43:57.452Z,15.86
2018-04-11T09:46:27.560Z,15.66
2018-04-11T09:48:57.370Z,15.56
2018-04-11T09:51:27.392Z,15.43
2018-04-11T09:53:57.424Z,15.38
2018-04-11T09:56:26.810Z,15.57
2018-04-11T09:58:56.905Z,15.80
2018-04-11T10:01:45.183Z,16.04
2018-04-11T10:04:13.671Z,16.32
2018-04-11T10:06:42.734Z,16.52
2018-04-11T10:09:16.559Z,16.80
2018-04-11T10:11:45.032Z,16.98
2018-04-11T10:14:13.438Z,17.09
2018-04-11T10:16:43.420Z,17.03
2018-04-11T10:19:14.936Z,16.90
2018-04-11T10:21:45.884Z,16.64
2018-04-11T10:24:17.872Z,16.62
2018-04-11T10:26:46.120Z,16.89
2018-04-11T10:29:19.394Z,17.07
2018-04-11T10:31:49.418Z,16.95
2018-04-11T10:34:19.522Z,17.03
2018-04-11T10:36:49.671Z,16.99
2018-04-11T10:39:26.957Z,16.83
2018-04-11T10:41:56.160Z,16.76
2018-04-11T10:44:26.396Z,17.01
2018-04-11T10:46:56.406Z,17.22
2018-04-11T10:49:24.992Z,17.41
2018-04-11T10:51:54.977Z,17.63
2018-04-11T10:54:24.930Z,17.77
2018-04-11T10:56:55.016Z,17.80
2018-04-11T10:59:23.321Z,17.77
2018-04-11T11:01:54.356Z,17.55
2018-04-11T11:04:31.908Z,17.50
2018-04-11T11:07:03.055Z,17.57
2018-04-11T11:09:33.206Z,17.59
2018-04-11T11:12:03.358Z,17.62
2018-04-11T11:14:33.540Z,17.72
2018-04-11T11:17:02.688Z,17.49
2018-04-11T11:19:43.297Z,17.30
2018-04-11T11:22:13.531Z,17.12
2018-04-11T11:24:50.142Z,17.00
2018-04-11T11:27:19.242Z,16.97
2018-04-11T11:29:49.033Z,17.21
2018-04-11T11:32:20.084Z,17.51
2018-04-11T11:34:50.195Z,17.86
2018-04-11T11:37:31.077Z,18.23
2018-04-11T11:39:59.537Z,18.31
2018-04-11T11:42:29.579Z,18.17
2018-04-11T11:45:03.723Z,18.04
2018-04-11T11:47:39.920Z,17.97
2018-04-11T11:50:09.853Z,18.04
2018-04-11T11:52:38.876Z,17.92
2018-04-11T11:55:10.241Z,17.89
2018-04-11T11:57:40.362Z,17.91
2018-04-11T12:00:10.426Z,17.86
2018-04-11T12:02:44.683Z,17.84
2018-04-11T12:05:12.978Z,18.04
2018-04-11T12:07:41.339Z,18.31
2018-04-11T12:10:12.281Z,18.65
2018-04-11T12:12:47.770Z,18.63
2018-04-11T12:15:16.112Z,18.56
2018-04-11T12:17:44.494Z,18.37
2018-04-11T12:20:14.437Z,18.36
2018-04-11T12:22:46.093Z,18.44
2018-04-11T12:25:16.653Z,18.55
2018-04-11T12:27:45.090Z,18.67
2018-04-11T12:30:13.486Z,18.82
2018-04-11T12:32:43.429Z,18.97
2018-04-11T12:35:13.402Z,19.03
2018-04-11T12:37:43.522Z,19.17
2018-04-11T12:40:13.719Z,19.15
2018-04-11T12:42:42.757Z,19.25
2018-04-11T12:45:16.882Z,19.19
2018-04-11T12:47:45.351Z,19.32
2018-04-11T12:50:13.846Z,19.40
2018-04-11T12:52:45.499Z,19.64
2018-04-11T12:55:13.816Z,19.83
2018-04-11T12:57:42.853Z,19.87
2018-04-11T13:00:12.828Z,19.67
2018-04-11T13:02:41.275Z,19.37
2018-04-11T13:05:09.674Z,19.21
2018-04-11T13:07:37.971Z,19.25
2018-04-11T13:10:08.005Z,19.30
2018-04-11T13:12:36.445Z,19.32
2018-04-11T13:15:06.551Z,19.46
2018-04-11T13:17:36.515Z,19.60
2018-04-11T13:20:07.056Z,19.72
2018-04-11T13:22:39.508Z,19.86
2018-04-11T13:25:12.799Z,20.06
2018-04-11T13:27:41.274Z,19.98
2018-04-11T13:30:12.234Z,20.10
2018-04-11T13:32:40.598Z,20.23
2018-04-11T13:35:08.884Z,20.24
2018-04-11T13:37:48.946Z,20.30
2018-04-11T13:40:19.749Z,20.48
2018-04-11T13:42:48.148Z,20.47
2018-04-11T13:45:32.853Z,20.63
2018-04-11T13:48:01.187Z,20.80
2018-04-11T13:50:29.673Z,20.82
2018-04-11T13:52:58.054Z,20.75
2018-04-11T13:55:30.819Z,20.80
2018-04-11T13:58:09.656Z,20.87
2018-04-11T14:00:39.598Z,20.94
2018-04-11T14:03:07.979Z,21.09
2018-04-11T14:05:38.075Z,21.25
2018-04-11T14:08:07.202Z,21.22
2018-04-11T14:10:37.236Z,21.33
2018-04-11T14:13:09.141Z,21.27
2018-04-11T14:15:40.000Z,21.20
2018-04-11T14:20:41.499Z,21.19
2018-04-11T14:23:09.738Z,21.51
2018-04-11T14:25:39.885Z,21.66
2018-04-11T14:28:08.263Z,21.74
2018-04-11T14:30:37.092Z,21.54
2018-04-11T14:33:05.421Z,21.77
2018-04-11T14:35:37.647Z,21.89
2018-04-11T14:38:07.782Z,22.01
2018-04-11T14:40:37.127Z,22.57
2018-04-11T14:43:05.514Z,22.85
2018-04-11T14:45:39.211Z,23.01
2018-04-11T14:48:09.429Z,23.33
2018-04-11T14:50:38.887Z,23.58
2018-04-11T14:53:10.915Z,23.53
2018-04-11T14:55:40.010Z,23.71
2018-04-11T14:58:13.443Z,23.69
2018-04-11T15:00:43.737Z,23.58
2018-04-11T15:03:12.226Z,23.40
2018-04-11T15:05:42.291Z,22.74
2018-04-11T15:08:15.433Z,22.16
2018-04-11T15:10:45.564Z,22.31
2018-04-11T15:13:15.665Z,22.66
2018-04-11T15:15:43.931Z,22.85
2018-04-11T15:18:12.437Z,22.94
2018-04-11T15:20:40.835Z,22.89
2018-04-11T15:23:10.870Z,23.10
2018-04-11T15:25:40.563Z,22.92
2018-04-11T15:28:11.935Z,22.41
2018-04-11T15:30:46.947Z,21.72
2018-04-11T15:33:36.723Z,21.49
2018-04-11T15:36:06.761Z,21.29
2018-04-11T15:38:36.350Z,21.01
2018-04-11T15:43:58.778Z,20.66
2018-04-11T15:46:38.702Z,20.37
2018-04-11T15:49:09.216Z,20.38
2018-04-11T15:51:42.018Z,20.65
2018-04-11T15:54:10.346Z,20.58
2018-04-11T15:56:41.269Z,20.52
2018-04-11T15:59:11.358Z,20.57
2018-04-11T16:01:45.036Z,20.52
2018-04-11T16:04:15.139Z,20.34
2018-04-11T16:06:50.468Z,20.18
2018-04-11T16:09:19.602Z,20.13
2018-04-11T16:11:47.954Z,20.09
2018-04-11T16:14:16.437Z,19.88
2018-04-11T16:16:52.057Z,19.75
2018-04-11T16:22:04.071Z,19.55
2018-04-11T16:27:12.930Z,19.39
2018-04-11T16:29:43.055Z,19.28
2018-04-11T16:34:46.025Z,19.23
2018-04-11T16:37:15.170Z,19.19
2018-04-11T16:39:52.354Z,19.06
2018-04-11T16:42:22.603Z,19.00
2018-04-11T16:44:53.469Z,18.97
2018-04-11T16:47:27.920Z,18.95
2018-04-11T16:49:57.818Z,18.89
2018-04-11T16:52:28.800Z,18.83
2018-04-11T16:54:58.983Z,18.76
2018-04-11T16:57:27.514Z,18.71
2018-04-11T17:00:00.633Z,18.70
2018-04-11T17:02:28.904Z,18.66
2018-04-11T17:04:57.563Z,18.53
2018-04-11T17:07:31.617Z,18.46
2018-04-11T17:10:01.668Z,18.40
2018-04-11T17:12:31.777Z,18.34
2018-04-11T17:15:02.773Z,18.32
2018-04-11T17:17:34.136Z,18.23
2018-04-11T17:20:04.552Z,18.14
2018-04-11T17:25:33.977Z,17.99
2018-04-11T17:28:16.198Z,17.89
2018-04-11T17:30:59.112Z,17.78
2018-04-11T17:33:29.119Z,17.70
2018-04-11T17:35:57.613Z,17.62
2018-04-11T17:38:26.161Z,17.55
2018-04-11T17:40:57.195Z,17.52
2018-04-11T17:43:41.373Z,17.45
2018-04-11T17:46:09.825Z,17.35
2018-04-11T17:48:42.835Z,17.27
2018-04-11T17:51:13.816Z,17.18
2018-04-11T17:53:46.124Z,17.12
2018-04-11T17:56:19.531Z,17.03
2018-04-11T17:58:47.908Z,16.94
2018-04-11T18:01:17.901Z,16.85
2018-04-11T18:03:46.307Z,16.81
2018-04-11T18:06:16.482Z,16.74
2018-04-11T18:08:47.712Z,16.67
2018-04-11T18:11:16.168Z,16.60
2018-04-11T18:13:46.756Z,16.55
2018-04-11T18:16:19.184Z,16.51
2018-04-11T18:18:49.220Z,16.48
2018-04-11T18:21:17.522Z,16.43
2018-04-11T18:23:46.577Z,16.37
2018-04-11T18:26:20.391Z,16.32
2018-04-11T18:28:50.428Z,16.26
2018-04-11T18:31:20.630Z,16.19
2018-04-11T18:33:49.109Z,16.12
2018-04-11T18:36:17.626Z,16.04
2018-04-11T18:38:46.688Z,15.98
2018-04-11T18:41:15.077Z,15.91
2018-04-11T18:43:50.106Z,15.86
2018-04-11T18:46:21.103Z,15.79
2018-04-11T18:48:51.145Z,15.74
2018-04-11T18:51:19.567Z,15.69
2018-04-11T18:53:48.652Z,15.64
2018-04-11T18:56:18.060Z,15.60
2018-04-11T18:58:48.212Z,15.57
2018-04-11T19:01:18.369Z,15.54
2018-04-11T19:03:46.933Z,15.50
2018-04-11T19:06:16.084Z,15.47
2018-04-11T19:08:46.207Z,15.45
2018-04-11T19:11:19.423Z,15.43
2018-04-11T19:13:48.098Z,15.40
2018-04-11T19:16:19.065Z,15.38
2018-04-11T19:18:47.631Z,15.34
2018-04-11T19:21:17.875Z,15.31
2018-04-11T19:23:49.674Z,15.29
2018-04-11T19:26:18.175Z,15.25
2018-04-11T19:28:46.691Z,15.21
2018-04-11T19:31:16.287Z,15.18
2018-04-11T19:33:44.783Z,15.14
2018-04-11T19:36:13.579Z,15.11
2018-04-11T19:38:44.479Z,15.08
2018-04-11T19:41:14.590Z,15.06
2018-04-11T19:43:42.918Z,15.03
2018-04-11T19:46:15.850Z,14.99
2018-04-11T19:48:46.343Z,14.95
2018-04-11T19:51:17.416Z,14.91
2018-04-11T19:53:48.455Z,14.85
2018-04-11T19:56:18.632Z,14.82
2018-04-11T20:01:21.936Z,14.70
2018-04-11T20:03:52.199Z,14.65
2018-04-11T20:06:20.775Z,14.62
2018-04-11T20:08:49.220Z,14.59
2018-04-11T20:11:17.609Z,14.57
2018-04-11T20:13:48.990Z,14.53
2018-04-11T20:16:19.093Z,14.49
2018-04-11T20:18:47.511Z,14.46
2018-04-11T20:21:18.585Z,14.43
2018-04-11T20:23:47.653Z,14.38
2018-04-11T20:26:17.777Z,14.35
2018-04-11T20:28:46.868Z,14.32
2018-04-11T20:31:16.038Z,14.28
2018-04-11T20:33:45.167Z,14.24
2018-04-11T20:36:15.148Z,14.21
2018-04-11T20:38:43.567Z,14.18
2018-04-11T20:41:13.720Z,14.16
2018-04-11T20:43:43.735Z,14.13
2018-04-11T20:46:13.858Z,14.09
2018-04-11T20:48:44.719Z,14.06
2018-04-11T20:51:15.030Z,14.05
2018-04-11T20:53:46.589Z,14.00
2018-04-11T20:56:16.880Z,13.99
2018-04-11T20:58:47.933Z,13.97
2018-04-11T21:01:18.249Z,13.94
2018-04-11T21:03:46.734Z,13.93
2018-04-11T21:06:15.141Z,13.90
2018-04-11T21:08:45.245Z,13.88
2018-04-11T21:11:13.723Z,13.87
2018-04-11T21:13:42.057Z,13.86
2018-04-11T21:16:12.216Z,13.84
2018-04-11T21:18:42.278Z,13.82
2018-04-11T21:21:12.529Z,13.79
2018-04-11T21:23:42.600Z,13.77
2018-04-11T21:26:12.641Z,13.74
2018-04-11T21:28:40.921Z,13.72
2018-04-11T21:31:09.395Z,13.71
2018-04-11T21:33:39.705Z,13.71
2018-04-11T21:36:18.033Z,13.69
2018-04-11T21:38:47.230Z,13.69
2018-04-11T21:41:20.435Z,13.66
2018-04-11T21:43:53.478Z,13.66
2018-04-11T21:46:26.017Z,13.65
2018-04-11T21:48:56.060Z,13.63
2018-04-11T21:54:04.856Z,13.60
2018-04-11T21:56:34.059Z,13.57
2018-04-11T21:59:03.248Z,13.55
2018-04-11T22:01:34.205Z,13.52
2018-04-11T22:04:04.193Z,13.49
2018-04-11T22:06:32.786Z,13.49
2018-04-11T22:09:09.593Z,13.46
2018-04-11T22:11:44.847Z,13.45
2018-04-11T22:14:13.190Z,13.43
2018-04-11T22:16:43.373Z,13.41
2018-04-11T22:19:13.535Z,13.40
2018-04-11T22:21:44.680Z,13.39
2018-04-11T22:24:14.645Z,13.39
2018-04-11T22:26:44.886Z,13.40
2018-04-11T22:29:14.016Z,13.40
2018-04-11T22:31:44.307Z,13.41
2018-04-11T22:34:16.602Z,13.41
2018-04-11T22:36:46.590Z,13.41
2018-04-11T22:39:18.780Z,13.38
2018-04-11T22:41:47.266Z,13.37
2018-04-11T22:44:17.120Z,13.35
2018-04-11T22:46:47.170Z,13.32
2018-04-11T22:49:16.268Z,13.29
2018-04-11T22:51:47.497Z,13.28
2018-04-11T22:54:17.629Z,13.26
2018-04-11T22:56:45.913Z,13.24
2018-04-11T22:59:15.870Z,13.23
2018-04-11T23:01:46.049Z,13.23
2018-04-11T23:04:17.038Z,13.22
2018-04-11T23:06:45.282Z,13.21
2018-04-11T23:09:16.212Z,13.22
2018-04-11T23:11:46.302Z,13.22
2018-04-11T23:14:14.777Z,13.22
2018-04-11T23:16:44.892Z,13.25
2018-04-11T23:19:13.224Z,13.25
2018-04-11T23:21:42.320Z,13.26
2018-04-11T23:24:18.317Z,13.26
2018-04-11T23:26:47.387Z,13.24
2018-04-11T23:29:15.749Z,13.22
2018-04-11T23:31:45.852Z,13.20
2018-04-11T23:34:15.902Z,13.19
2018-04-11T23:36:46.044Z,13.19
2018-04-11T23:39:16.837Z,13.19
2018-04-11T23:41:46.897Z,13.19
2018-04-11T23:44:15.204Z,13.21
2018-04-11T23:46:45.240Z,13.22
2018-04-11T23:49:19.395Z,13.23
2018-04-11T23:51:49.427Z,13.23
2018-04-11T23:54:19.553Z,13.23
2018-04-11T23:56:49.565Z,13.22
2018-04-11T23:59:18.662Z,13.20
